sensor_id;sensor_type;location;lat;lon;timestamp;P1;durP1;ratioP1;P2;durP2;ratioP2
67762;SDS011;54566;52.022;5.582;2022-08-21T00:00:19;13.73;;;5.63;;
67762;SDS011;54566;52.022;5.582;2022-08-21T00:02:50;14.60;;;5.35;;
67762;SDS011;54566;52.022;5.582;2022-08-21T00:05:17;10.10;;;5.20;;
67762;SDS011;54566;52.022;5.582;2022-08-21T00:07:43;12.60;;;5.50;;
67762;SDS011;54566;52.022;5.582;2022-08-21T00:10:09;13.15;;;5.03;;
67762;SDS011;54566;52.022;5.582;2022-08-21T00:12:36;9.70;;;5.15;;
67762;SDS011;54566;52.022;5.582;2022-08-21T00:15:03;9.25;;;5.32;;
67762;SDS011;54566;52.022;5.582;2022-08-21T00:17:29;13.18;;;5.63;;
67762;SDS011;54566;52.022;5.582;2022-08-21T00:19:55;13.77;;;5.18;;
67762;SDS011;54566;52.022;5.582;2022-08-21T00:22:21;11.52;;;5.05;;
67762;SDS011;54566;52.022;5.582;2022-08-21T00:24:47;13.25;;;5.97;;
67762;SDS011;54566;52.022;5.582;2022-08-21T00:27:13;8.95;;;5.05;;
67762;SDS011;54566;52.022;5.582;2022-08-21T00:29:38;10.05;;;5.43;;
67762;SDS011;54566;52.022;5.582;2022-08-21T00:32:04;10.55;;;5.70;;
67762;SDS011;54566;52.022;5.582;2022-08-21T00:34:31;10.95;;;5.70;;
67762;SDS011;54566;52.022;5.582;2022-08-21T00:36:57;9.65;;;5.53;;
67762;SDS011;54566;52.022;5.582;2022-08-21T00:39:23;13.45;;;5.30;;
67762;SDS011;54566;52.022;5.582;2022-08-21T00:41:49;11.85;;;5.88;;
67762;SDS011;54566;52.022;5.582;2022-08-21T00:44:15;10.90;;;6.03;;
67762;SDS011;54566;52.022;5.582;2022-08-21T00:46:41;11.95;;;5.40;;
67762;SDS011;54566;52.022;5.582;2022-08-21T00:49:08;11.57;;;5.30;;
67762;SDS011;54566;52.022;5.582;2022-08-21T00:51:39;8.68;;;5.65;;
67762;SDS011;54566;52.022;5.582;2022-08-21T00:54:06;11.30;;;5.53;;
67762;SDS011;54566;52.022;5.582;2022-08-21T00:56:33;10.20;;;5.57;;
67762;SDS011;54566;52.022;5.582;2022-08-21T00:58:59;13.13;;;5.60;;
67762;SDS011;54566;52.022;5.582;2022-08-21T01:01:26;9.60;;;5.55;;
67762;SDS011;54566;52.022;5.582;2022-08-21T01:03:52;10.45;;;5.70;;
67762;SDS011;54566;52.022;5.582;2022-08-21T01:06:18;13.23;;;5.82;;
67762;SDS011;54566;52.022;5.582;2022-08-21T01:08:45;17.05;;;6.25;;
67762;SDS011;54566;52.022;5.582;2022-08-21T01:11:11;8.88;;;5.65;;
67762;SDS011;54566;52.022;5.582;2022-08-21T01:13:37;11.45;;;5.63;;
67762;SDS011;54566;52.022;5.582;2022-08-21T01:16:10;14.30;;;6.30;;
67762;SDS011;54566;52.022;5.582;2022-08-21T01:18:37;14.80;;;5.82;;
67762;SDS011;54566;52.022;5.582;2022-08-21T01:23:29;13.75;;;5.78;;
67762;SDS011;54566;52.022;5.582;2022-08-21T01:25:55;13.13;;;5.70;;
67762;SDS011;54566;52.022;5.582;2022-08-21T01:28:21;11.10;;;5.90;;
67762;SDS011;54566;52.022;5.582;2022-08-21T01:30:47;11.25;;;6.45;;
67762;SDS011;54566;52.022;5.582;2022-08-21T01:33:14;18.23;;;6.10;;
67762;SDS011;54566;52.022;5.582;2022-08-21T01:35:40;12.98;;;6.55;;
67762;SDS011;54566;52.022;5.582;2022-08-21T01:38:06;15.77;;;5.93;;
67762;SDS011;54566;52.022;5.582;2022-08-21T01:40:32;13.02;;;5.65;;
67762;SDS011;54566;52.022;5.582;2022-08-21T01:42:58;11.65;;;6.18;;
67762;SDS011;54566;52.022;5.582;2022-08-21T01:45:24;15.43;;;6.05;;
67762;SDS011;54566;52.022;5.582;2022-08-21T01:47:50;12.93;;;6.00;;
67762;SDS011;54566;52.022;5.582;2022-08-21T01:50:17;12.63;;;5.88;;
67762;SDS011;54566;52.022;5.582;2022-08-21T01:52:43;13.45;;;6.43;;
67762;SDS011;54566;52.022;5.582;2022-08-21T01:55:10;12.50;;;5.70;;
67762;SDS011;54566;52.022;5.582;2022-08-21T01:57:36;17.83;;;5.78;;
67762;SDS011;54566;52.022;5.582;2022-08-21T02:00:07;10.85;;;6.03;;
67762;SDS011;54566;52.022;5.582;2022-08-21T02:02:35;10.85;;;5.97;;
67762;SDS011;54566;52.022;5.582;2022-08-21T02:05:01;11.25;;;6.10;;
67762;SDS011;54566;52.022;5.582;2022-08-21T02:07:34;16.70;;;7.05;;
67762;SDS011;54566;52.022;5.582;2022-08-21T02:10:00;14.70;;;6.57;;
67762;SDS011;54566;52.022;5.582;2022-08-21T02:12:27;16.73;;;6.25;;
67762;SDS011;54566;52.022;5.582;2022-08-21T02:14:53;13.85;;;5.90;;
67762;SDS011;54566;52.022;5.582;2022-08-21T02:17:19;14.45;;;6.13;;
67762;SDS011;54566;52.022;5.582;2022-08-21T02:19:45;8.40;;;5.90;;
67762;SDS011;54566;52.022;5.582;2022-08-21T02:22:11;12.00;;;5.95;;
67762;SDS011;54566;52.022;5.582;2022-08-21T02:24:37;9.15;;;5.80;;
67762;SDS011;54566;52.022;5.582;2022-08-21T02:27:03;10.40;;;6.18;;
67762;SDS011;54566;52.022;5.582;2022-08-21T02:29:29;12.13;;;6.05;;
67762;SDS011;54566;52.022;5.582;2022-08-21T02:31:55;13.52;;;6.90;;
67762;SDS011;54566;52.022;5.582;2022-08-21T02:34:21;10.38;;;6.15;;
67762;SDS011;54566;52.022;5.582;2022-08-21T02:36:47;15.55;;;6.63;;
67762;SDS011;54566;52.022;5.582;2022-08-21T02:39:14;11.88;;;6.75;;
67762;SDS011;54566;52.022;5.582;2022-08-21T02:41:40;14.68;;;6.13;;
67762;SDS011;54566;52.022;5.582;2022-08-21T02:44:06;10.27;;;6.28;;
67762;SDS011;54566;52.022;5.582;2022-08-21T02:46:32;15.05;;;6.80;;
67762;SDS011;54566;52.022;5.582;2022-08-21T02:48:58;13.73;;;6.75;;
67762;SDS011;54566;52.022;5.582;2022-08-21T02:51:24;13.15;;;6.28;;
67762;SDS011;54566;52.022;5.582;2022-08-21T02:53:51;12.38;;;6.15;;
67762;SDS011;54566;52.022;5.582;2022-08-21T02:56:19;16.58;;;6.28;;
67762;SDS011;54566;52.022;5.582;2022-08-21T03:01:11;12.77;;;6.22;;
67762;SDS011;54566;52.022;5.582;2022-08-21T03:03:38;13.60;;;6.65;;
67762;SDS011;54566;52.022;5.582;2022-08-21T03:06:06;13.05;;;6.38;;
67762;SDS011;54566;52.022;5.582;2022-08-21T03:08:33;16.00;;;6.10;;
67762;SDS011;54566;52.022;5.582;2022-08-21T03:10:59;12.10;;;5.90;;
67762;SDS011;54566;52.022;5.582;2022-08-21T03:13:26;11.02;;;6.22;;
67762;SDS011;54566;52.022;5.582;2022-08-21T03:15:52;12.18;;;5.95;;
67762;SDS011;54566;52.022;5.582;2022-08-21T03:18:19;12.68;;;6.00;;
67762;SDS011;54566;52.022;5.582;2022-08-21T03:20:45;12.02;;;6.07;;
67762;SDS011;54566;52.022;5.582;2022-08-21T03:23:11;14.48;;;6.40;;
67762;SDS011;54566;52.022;5.582;2022-08-21T03:25:38;12.48;;;5.93;;
67762;SDS011;54566;52.022;5.582;2022-08-21T03:28:05;10.70;;;5.85;;
67762;SDS011;54566;52.022;5.582;2022-08-21T03:30:31;14.50;;;6.60;;
67762;SDS011;54566;52.022;5.582;2022-08-21T03:32:58;13.88;;;5.88;;
67762;SDS011;54566;52.022;5.582;2022-08-21T03:35:24;16.08;;;6.88;;
67762;SDS011;54566;52.022;5.582;2022-08-21T03:37:51;12.48;;;5.88;;
67762;SDS011;54566;52.022;5.582;2022-08-21T03:40:18;11.40;;;5.80;;
67762;SDS011;54566;52.022;5.582;2022-08-21T03:42:45;12.20;;;5.97;;
67762;SDS011;54566;52.022;5.582;2022-08-21T03:45:15;16.15;;;6.28;;
67762;SDS011;54566;52.022;5.582;2022-08-21T03:47:51;14.20;;;6.60;;
67762;SDS011;54566;52.022;5.582;2022-08-21T03:50:17;11.68;;;6.72;;
67762;SDS011;54566;52.022;5.582;2022-08-21T03:52:43;15.48;;;6.60;;
67762;SDS011;54566;52.022;5.582;2022-08-21T03:55:10;10.13;;;6.45;;
67762;SDS011;54566;52.022;5.582;2022-08-21T03:57:36;17.27;;;7.38;;
67762;SDS011;54566;52.022;5.582;2022-08-21T04:00:03;15.40;;;6.85;;
67762;SDS011;54566;52.022;5.582;2022-08-21T04:02:29;15.35;;;7.05;;
67762;SDS011;54566;52.022;5.582;2022-08-21T04:04:55;16.90;;;6.75;;
67762;SDS011;54566;52.022;5.582;2022-08-21T04:07:21;16.10;;;7.03;;
67762;SDS011;54566;52.022;5.582;2022-08-21T04:09:47;16.08;;;6.30;;
67762;SDS011;54566;52.022;5.582;2022-08-21T04:12:13;13.48;;;6.25;;
67762;SDS011;54566;52.022;5.582;2022-08-21T04:14:39;12.25;;;6.15;;
67762;SDS011;54566;52.022;5.582;2022-08-21T04:17:06;10.10;;;6.50;;
67762;SDS011;54566;52.022;5.582;2022-08-21T04:19:32;12.35;;;6.45;;
67762;SDS011;54566;52.022;5.582;2022-08-21T04:21:58;18.80;;;6.68;;
67762;SDS011;54566;52.022;5.582;2022-08-21T04:24:25;11.07;;;6.90;;
67762;SDS011;54566;52.022;5.582;2022-08-21T04:26:51;10.30;;;6.68;;
67762;SDS011;54566;52.022;5.582;2022-08-21T04:29:17;20.67;;;7.13;;
67762;SDS011;54566;52.022;5.582;2022-08-21T04:31:44;17.70;;;6.78;;
67762;SDS011;54566;52.022;5.582;2022-08-21T04:34:10;10.85;;;6.70;;
67762;SDS011;54566;52.022;5.582;2022-08-21T04:36:36;11.13;;;7.15;;
67762;SDS011;54566;52.022;5.582;2022-08-21T04:39:02;12.88;;;6.57;;
67762;SDS011;54566;52.022;5.582;2022-08-21T04:41:28;15.30;;;7.00;;
67762;SDS011;54566;52.022;5.582;2022-08-21T04:43:54;18.60;;;6.57;;
67762;SDS011;54566;52.022;5.582;2022-08-21T04:46:20;10.90;;;6.88;;
67762;SDS011;54566;52.022;5.582;2022-08-21T04:48:46;17.85;;;7.18;;
67762;SDS011;54566;52.022;5.582;2022-08-21T04:51:21;12.60;;;7.75;;
67762;SDS011;54566;52.022;5.582;2022-08-21T04:53:56;12.48;;;6.75;;
67762;SDS011;54566;52.022;5.582;2022-08-21T04:56:28;14.93;;;7.28;;
67762;SDS011;54566;52.022;5.582;2022-08-21T04:58:56;17.77;;;7.70;;
67762;SDS011;54566;52.022;5.582;2022-08-21T05:01:24;17.33;;;7.55;;
67762;SDS011;54566;52.022;5.582;2022-08-21T05:03:52;16.35;;;7.50;;
67762;SDS011;54566;52.022;5.582;2022-08-21T05:06:20;14.35;;;7.60;;
67762;SDS011;54566;52.022;5.582;2022-08-21T05:08:47;20.10;;;7.30;;
67762;SDS011;54566;52.022;5.582;2022-08-21T05:11:14;16.38;;;8.05;;
67762;SDS011;54566;52.022;5.582;2022-08-21T05:13:40;14.88;;;6.93;;
67762;SDS011;54566;52.022;5.582;2022-08-21T05:16:06;19.30;;;7.18;;
67762;SDS011;54566;52.022;5.582;2022-08-21T05:18:33;15.18;;;7.40;;
67762;SDS011;54566;52.022;5.582;2022-08-21T05:20:59;15.25;;;7.88;;
67762;SDS011;54566;52.022;5.582;2022-08-21T05:23:25;13.88;;;8.13;;
67762;SDS011;54566;52.022;5.582;2022-08-21T05:25:51;14.35;;;8.32;;
67762;SDS011;54566;52.022;5.582;2022-08-21T05:28:17;15.20;;;7.82;;
67762;SDS011;54566;52.022;5.582;2022-08-21T05:30:44;22.13;;;8.07;;
67762;SDS011;54566;52.022;5.582;2022-08-21T05:33:10;20.83;;;8.63;;
67762;SDS011;54566;52.022;5.582;2022-08-21T05:35:36;12.50;;;7.20;;
67762;SDS011;54566;52.022;5.582;2022-08-21T05:38:03;16.35;;;8.05;;
67762;SDS011;54566;52.022;5.582;2022-08-21T05:40:29;14.45;;;8.35;;
67762;SDS011;54566;52.022;5.582;2022-08-21T05:42:55;16.13;;;7.82;;
67762;SDS011;54566;52.022;5.582;2022-08-21T05:45:42;21.00;;;8.18;;
67762;SDS011;54566;52.022;5.582;2022-08-21T05:48:07;15.90;;;8.07;;
67762;SDS011;54566;52.022;5.582;2022-08-21T05:50:34;16.63;;;7.68;;
67762;SDS011;54566;52.022;5.582;2022-08-21T05:53:00;19.58;;;8.25;;
67762;SDS011;54566;52.022;5.582;2022-08-21T05:55:26;13.70;;;7.70;;
67762;SDS011;54566;52.022;5.582;2022-08-21T05:57:52;16.83;;;7.75;;
67762;SDS011;54566;52.022;5.582;2022-08-21T06:00:18;16.58;;;8.27;;
67762;SDS011;54566;52.022;5.582;2022-08-21T06:02:44;15.68;;;7.53;;
67762;SDS011;54566;52.022;5.582;2022-08-21T06:05:10;14.82;;;7.78;;
67762;SDS011;54566;52.022;5.582;2022-08-21T06:07:37;15.77;;;7.07;;
67762;SDS011;54566;52.022;5.582;2022-08-21T06:10:03;18.48;;;7.10;;
67762;SDS011;54566;52.022;5.582;2022-08-21T06:12:29;13.45;;;7.13;;
67762;SDS011;54566;52.022;5.582;2022-08-21T06:14:55;15.40;;;6.50;;
67762;SDS011;54566;52.022;5.582;2022-08-21T06:17:21;19.85;;;6.63;;
67762;SDS011;54566;52.022;5.582;2022-08-21T06:19:51;15.35;;;7.00;;
67762;SDS011;54566;52.022;5.582;2022-08-21T06:22:18;20.55;;;6.30;;
67762;SDS011;54566;52.022;5.582;2022-08-21T06:24:44;14.20;;;5.45;;
67762;SDS011;54566;52.022;5.582;2022-08-21T06:27:10;17.27;;;5.63;;
67762;SDS011;54566;52.022;5.582;2022-08-21T06:29:36;17.48;;;5.40;;
67762;SDS011;54566;52.022;5.582;2022-08-21T06:32:03;18.10;;;6.55;;
67762;SDS011;54566;52.022;5.582;2022-08-21T06:37:33;21.17;;;5.60;;
67762;SDS011;54566;52.022;5.582;2022-08-21T06:39:59;18.67;;;6.03;;
67762;SDS011;54566;52.022;5.582;2022-08-21T06:42:25;14.07;;;5.20;;
67762;SDS011;54566;52.022;5.582;2022-08-21T06:44:52;18.43;;;5.90;;
67762;SDS011;54566;52.022;5.582;2022-08-21T06:47:18;17.80;;;5.20;;
67762;SDS011;54566;52.022;5.582;2022-08-21T06:49:44;20.77;;;5.40;;
67762;SDS011;54566;52.022;5.582;2022-08-21T06:52:12;16.20;;;5.78;;
67762;SDS011;54566;52.022;5.582;2022-08-21T06:54:38;33.80;;;6.75;;
67762;SDS011;54566;52.022;5.582;2022-08-21T06:57:04;22.75;;;6.15;;
67762;SDS011;54566;52.022;5.582;2022-08-21T06:59:33;21.13;;;6.10;;
67762;SDS011;54566;52.022;5.582;2022-08-21T07:01:59;18.00;;;5.78;;
67762;SDS011;54566;52.022;5.582;2022-08-21T07:04:26;18.13;;;5.38;;
67762;SDS011;54566;52.022;5.582;2022-08-21T07:06:52;25.15;;;6.55;;
67762;SDS011;54566;52.022;5.582;2022-08-21T07:09:18;22.35;;;6.35;;
67762;SDS011;54566;52.022;5.582;2022-08-21T07:11:44;18.27;;;6.63;;
67762;SDS011;54566;52.022;5.582;2022-08-21T07:14:14;19.25;;;6.13;;
67762;SDS011;54566;52.022;5.582;2022-08-21T07:16:40;18.98;;;6.75;;
67762;SDS011;54566;52.022;5.582;2022-08-21T07:19:06;22.08;;;6.15;;
67762;SDS011;54566;52.022;5.582;2022-08-21T07:21:32;18.05;;;6.72;;
67762;SDS011;54566;52.022;5.582;2022-08-21T07:23:58;18.73;;;6.20;;
67762;SDS011;54566;52.022;5.582;2022-08-21T07:26:24;22.27;;;6.32;;
67762;SDS011;54566;52.022;5.582;2022-08-21T07:28:52;30.10;;;6.30;;
67762;SDS011;54566;52.022;5.582;2022-08-21T07:31:19;23.83;;;5.82;;
67762;SDS011;54566;52.022;5.582;2022-08-21T07:33:46;33.13;;;7.90;;
67762;SDS011;54566;52.022;5.582;2022-08-21T07:36:12;22.38;;;6.53;;
67762;SDS011;54566;52.022;5.582;2022-08-21T07:38:39;25.40;;;5.82;;
67762;SDS011;54566;52.022;5.582;2022-08-21T07:41:07;23.98;;;5.65;;
67762;SDS011;54566;52.022;5.582;2022-08-21T07:43:36;24.35;;;6.72;;
67762;SDS011;54566;52.022;5.582;2022-08-21T07:46:03;20.38;;;5.65;;
67762;SDS011;54566;52.022;5.582;2022-08-21T07:48:29;19.10;;;5.22;;
67762;SDS011;54566;52.022;5.582;2022-08-21T07:50:55;20.50;;;5.50;;
67762;SDS011;54566;52.022;5.582;2022-08-21T07:53:22;10.93;;;3.97;;
67762;SDS011;54566;52.022;5.582;2022-08-21T07:55:48;24.85;;;5.63;;
67762;SDS011;54566;52.022;5.582;2022-08-21T07:58:14;17.95;;;5.03;;
67762;SDS011;54566;52.022;5.582;2022-08-21T08:00:40;17.83;;;4.78;;
67762;SDS011;54566;52.022;5.582;2022-08-21T08:03:07;21.00;;;4.97;;
67762;SDS011;54566;52.022;5.582;2022-08-21T08:05:33;28.20;;;6.55;;
67762;SDS011;54566;52.022;5.582;2022-08-21T08:08:02;15.52;;;4.50;;
67762;SDS011;54566;52.022;5.582;2022-08-21T08:10:28;19.00;;;5.22;;
67762;SDS011;54566;52.022;5.582;2022-08-21T08:12:54;18.42;;;5.15;;
67762;SDS011;54566;52.022;5.582;2022-08-21T08:15:21;15.40;;;4.65;;
67762;SDS011;54566;52.022;5.582;2022-08-21T08:17:48;21.30;;;5.32;;
67762;SDS011;54566;52.022;5.582;2022-08-21T08:20:15;17.55;;;5.20;;
67762;SDS011;54566;52.022;5.582;2022-08-21T08:22:41;14.82;;;4.47;;
67762;SDS011;54566;52.022;5.582;2022-08-21T08:25:08;27.38;;;5.00;;
67762;SDS011;54566;52.022;5.582;2022-08-21T08:27:34;24.92;;;5.18;;
67762;SDS011;54566;52.022;5.582;2022-08-21T08:30:00;22.80;;;4.97;;
67762;SDS011;54566;52.022;5.582;2022-08-21T08:32:26;21.95;;;4.72;;
67762;SDS011;54566;52.022;5.582;2022-08-21T08:34:52;17.23;;;4.03;;
67762;SDS011;54566;52.022;5.582;2022-08-21T08:37:20;20.95;;;5.00;;
67762;SDS011;54566;52.022;5.582;2022-08-21T08:39:46;12.93;;;3.95;;
67762;SDS011;54566;52.022;5.582;2022-08-21T08:42:18;19.35;;;4.70;;
67762;SDS011;54566;52.022;5.582;2022-08-21T08:44:46;20.55;;;4.57;;
67762;SDS011;54566;52.022;5.582;2022-08-21T08:47:13;12.82;;;4.03;;
67762;SDS011;54566;52.022;5.582;2022-08-21T08:54:45;20.48;;;4.30;;
67762;SDS011;54566;52.022;5.582;2022-08-21T08:57:16;19.45;;;4.63;;
67762;SDS011;54566;52.022;5.582;2022-08-21T08:59:43;15.60;;;3.38;;
67762;SDS011;54566;52.022;5.582;2022-08-21T09:02:11;18.00;;;4.68;;
67762;SDS011;54566;52.022;5.582;2022-08-21T09:04:37;20.50;;;4.10;;
67762;SDS011;54566;52.022;5.582;2022-08-21T09:12:28;16.27;;;4.40;;
67762;SDS011;54566;52.022;5.582;2022-08-21T09:15:01;18.75;;;3.85;;
67762;SDS011;54566;52.022;5.582;2022-08-21T09:25:21;12.65;;;3.47;;
67762;SDS011;54566;52.022;5.582;2022-08-21T09:27:49;15.70;;;3.53;;
67762;SDS011;54566;52.022;5.582;2022-08-21T09:30:16;12.32;;;2.65;;
67762;SDS011;54566;52.022;5.582;2022-08-21T09:32:42;13.68;;;3.00;;
67762;SDS011;54566;52.022;5.582;2022-08-21T09:37:44;16.15;;;2.90;;
67762;SDS011;54566;52.022;5.582;2022-08-21T09:40:15;17.77;;;2.78;;
67762;SDS011;54566;52.022;5.582;2022-08-21T09:42:53;11.02;;;2.45;;
67762;SDS011;54566;52.022;5.582;2022-08-21T09:45:19;10.20;;;2.33;;
67762;SDS011;54566;52.022;5.582;2022-08-21T09:47:45;11.07;;;2.75;;
67762;SDS011;54566;52.022;5.582;2022-08-21T09:50:13;12.10;;;3.28;;
67762;SDS011;54566;52.022;5.582;2022-08-21T09:52:42;8.02;;;2.22;;
67762;SDS011;54566;52.022;5.582;2022-08-21T09:55:13;11.02;;;2.70;;
67762;SDS011;54566;52.022;5.582;2022-08-21T09:58:00;15.63;;;2.97;;
67762;SDS011;54566;52.022;5.582;2022-08-21T10:02:54;13.27;;;2.85;;
67762;SDS011;54566;52.022;5.582;2022-08-21T10:05:25;14.07;;;3.05;;
67762;SDS011;54566;52.022;5.582;2022-08-21T10:07:52;12.52;;;2.97;;
67762;SDS011;54566;52.022;5.582;2022-08-21T10:10:19;15.30;;;3.25;;
67762;SDS011;54566;52.022;5.582;2022-08-21T10:12:51;12.45;;;2.80;;
67762;SDS011;54566;52.022;5.582;2022-08-21T10:15:24;11.55;;;2.10;;
67762;SDS011;54566;52.022;5.582;2022-08-21T10:18:27;11.13;;;2.83;;
67762;SDS011;54566;52.022;5.582;2022-08-21T10:20:51;10.00;;;2.40;;
67762;SDS011;54566;52.022;5.582;2022-08-21T10:34:07;11.35;;;2.65;;
67762;SDS011;54566;52.022;5.582;2022-08-21T10:36:39;14.35;;;2.80;;
67762;SDS011;54566;52.022;5.582;2022-08-21T10:41:39;14.00;;;2.90;;
67762;SDS011;54566;52.022;5.582;2022-08-21T10:49:22;10.90;;;2.00;;
67762;SDS011;54566;52.022;5.582;2022-08-21T10:52:03;12.10;;;2.40;;
67762;SDS011;54566;52.022;5.582;2022-08-21T10:54:35;10.55;;;2.28;;
67762;SDS011;54566;52.022;5.582;2022-08-21T10:57:05;9.20;;;1.90;;
67762;SDS011;54566;52.022;5.582;2022-08-21T10:59:42;11.25;;;2.80;;
67762;SDS011;54566;52.022;5.582;2022-08-21T11:09:43;14.55;;;2.40;;
67762;SDS011;54566;52.022;5.582;2022-08-21T11:14:56;7.28;;;2.00;;
67762;SDS011;54566;52.022;5.582;2022-08-21T11:17:24;11.85;;;2.72;;
67762;SDS011;54566;52.022;5.582;2022-08-21T11:19:54;18.02;;;2.55;;
67762;SDS011;54566;52.022;5.582;2022-08-21T11:22:43;10.27;;;2.33;;
67762;SDS011;54566;52.022;5.582;2022-08-21T11:25:21;9.87;;;2.10;;
67762;SDS011;54566;52.022;5.582;2022-08-21T11:27:49;7.53;;;2.10;;
67762;SDS011;54566;52.022;5.582;2022-08-21T11:30:17;15.00;;;2.25;;
67762;SDS011;54566;52.022;5.582;2022-08-21T11:40:42;9.50;;;2.38;;
67762;SDS011;54566;52.022;5.582;2022-08-21T11:45:53;9.23;;;1.98;;
67762;SDS011;54566;52.022;5.582;2022-08-21T11:50:57;14.38;;;2.60;;
67762;SDS011;54566;52.022;5.582;2022-08-21T11:58:26;6.97;;;1.77;;
67762;SDS011;54566;52.022;5.582;2022-08-21T12:00:55;10.65;;;1.90;;
67762;SDS011;54566;52.022;5.582;2022-08-21T12:05:55;9.20;;;2.30;;
67762;SDS011;54566;52.022;5.582;2022-08-21T12:08:32;7.28;;;1.75;;
67762;SDS011;54566;52.022;5.582;2022-08-21T12:11:09;6.72;;;1.50;;
67762;SDS011;54566;52.022;5.582;2022-08-21T12:13:37;9.68;;;2.13;;
67762;SDS011;54566;52.022;5.582;2022-08-21T12:18:29;7.25;;;1.63;;
67762;SDS011;54566;52.022;5.582;2022-08-21T12:20:57;12.13;;;2.08;;
67762;SDS011;54566;52.022;5.582;2022-08-21T12:28:39;9.23;;;1.98;;
67762;SDS011;54566;52.022;5.582;2022-08-21T12:31:16;7.95;;;2.22;;
67762;SDS011;54566;52.022;5.582;2022-08-21T12:36:19;7.28;;;2.10;;
67762;SDS011;54566;52.022;5.582;2022-08-21T12:39:04;6.47;;;1.80;;
67762;SDS011;54566;52.022;5.582;2022-08-21T12:41:41;10.27;;;2.55;;
67762;SDS011;54566;52.022;5.582;2022-08-21T12:44:10;8.30;;;2.05;;
67762;SDS011;54566;52.022;5.582;2022-08-21T12:49:32;6.65;;;1.70;;
67762;SDS011;54566;52.022;5.582;2022-08-21T12:52:20;8.18;;;1.92;;
67762;SDS011;54566;52.022;5.582;2022-08-21T12:54:47;9.90;;;2.13;;
67762;SDS011;54566;52.022;5.582;2022-08-21T12:57:26;10.95;;;2.58;;
67762;SDS011;54566;52.022;5.582;2022-08-21T12:59:56;6.82;;;2.10;;
67762;SDS011;54566;52.022;5.582;2022-08-21T13:02:24;6.38;;;1.70;;
67762;SDS011;54566;52.022;5.582;2022-08-21T13:04:51;8.25;;;2.30;;
67762;SDS011;54566;52.022;5.582;2022-08-21T13:07:22;7.32;;;1.98;;
67762;SDS011;54566;52.022;5.582;2022-08-21T13:09:55;14.77;;;2.08;;
67762;SDS011;54566;52.022;5.582;2022-08-21T13:12:23;10.75;;;2.20;;
67762;SDS011;54566;52.022;5.582;2022-08-21T13:14:49;7.30;;;2.17;;
67762;SDS011;54566;52.022;5.582;2022-08-21T13:19:52;6.82;;;1.85;;
67762;SDS011;54566;52.022;5.582;2022-08-21T13:22:18;6.35;;;1.70;;
67762;SDS011;54566;52.022;5.582;2022-08-21T13:24:46;10.77;;;1.77;;
67762;SDS011;54566;52.022;5.582;2022-08-21T13:27:20;7.13;;;1.80;;
67762;SDS011;54566;52.022;5.582;2022-08-21T13:29:47;5.55;;;1.67;;
67762;SDS011;54566;52.022;5.582;2022-08-21T13:32:18;5.18;;;1.83;;
67762;SDS011;54566;52.022;5.582;2022-08-21T13:34:45;10.27;;;2.00;;
67762;SDS011;54566;52.022;5.582;2022-08-21T13:37:12;5.63;;;1.38;;
67762;SDS011;54566;52.022;5.582;2022-08-21T13:39:39;10.63;;;2.05;;
67762;SDS011;54566;52.022;5.582;2022-08-21T13:42:08;13.10;;;1.70;;
67762;SDS011;54566;52.022;5.582;2022-08-21T13:44:39;9.95;;;1.95;;
67762;SDS011;54566;52.022;5.582;2022-08-21T13:47:06;7.10;;;1.90;;
67762;SDS011;54566;52.022;5.582;2022-08-21T13:49:34;8.27;;;2.15;;
67762;SDS011;54566;52.022;5.582;2022-08-21T13:52:01;9.27;;;2.08;;
67762;SDS011;54566;52.022;5.582;2022-08-21T13:54:38;6.97;;;1.95;;
67762;SDS011;54566;52.022;5.582;2022-08-21T13:57:14;8.55;;;1.92;;
67762;SDS011;54566;52.022;5.582;2022-08-21T13:59:41;8.80;;;2.00;;
67762;SDS011;54566;52.022;5.582;2022-08-21T14:04:38;13.20;;;2.00;;
67762;SDS011;54566;52.022;5.582;2022-08-21T14:07:19;8.40;;;1.80;;
67762;SDS011;54566;52.022;5.582;2022-08-21T14:12:13;7.05;;;2.00;;
67762;SDS011;54566;52.022;5.582;2022-08-21T14:14:40;8.98;;;1.95;;
67762;SDS011;54566;52.022;5.582;2022-08-21T14:17:08;6.95;;;2.17;;
67762;SDS011;54566;52.022;5.582;2022-08-21T14:19:39;10.98;;;2.25;;
67762;SDS011;54566;52.022;5.582;2022-08-21T14:24:58;9.38;;;1.60;;
67762;SDS011;54566;52.022;5.582;2022-08-21T14:27:25;5.85;;;2.17;;
67762;SDS011;54566;52.022;5.582;2022-08-21T14:29:57;8.30;;;2.08;;
67762;SDS011;54566;52.022;5.582;2022-08-21T14:32:24;13.27;;;2.10;;
67762;SDS011;54566;52.022;5.582;2022-08-21T14:34:54;6.50;;;1.67;;
67762;SDS011;54566;52.022;5.582;2022-08-21T14:37:20;7.25;;;1.77;;
67762;SDS011;54566;52.022;5.582;2022-08-21T14:39:47;8.75;;;1.77;;
67762;SDS011;54566;52.022;5.582;2022-08-21T14:42:13;7.63;;;1.73;;
67762;SDS011;54566;52.022;5.582;2022-08-21T14:44:39;7.75;;;2.00;;
67762;SDS011;54566;52.022;5.582;2022-08-21T14:47:06;9.57;;;1.70;;
67762;SDS011;54566;52.022;5.582;2022-08-21T14:49:32;4.97;;;1.25;;
67762;SDS011;54566;52.022;5.582;2022-08-21T14:51:58;6.72;;;1.70;;
67762;SDS011;54566;52.022;5.582;2022-08-21T14:54:26;5.38;;;1.95;;
67762;SDS011;54566;52.022;5.582;2022-08-21T14:56:53;10.57;;;1.90;;
67762;SDS011;54566;52.022;5.582;2022-08-21T14:59:20;12.15;;;1.98;;
67762;SDS011;54566;52.022;5.582;2022-08-21T15:01:46;8.32;;;2.22;;
67762;SDS011;54566;52.022;5.582;2022-08-21T15:04:12;28.13;;;2.38;;
67762;SDS011;54566;52.022;5.582;2022-08-21T15:06:38;79.03;;;6.10;;
67762;SDS011;54566;52.022;5.582;2022-08-21T15:09:04;10.15;;;2.38;;
67762;SDS011;54566;52.022;5.582;2022-08-21T15:11:31;7.68;;;3.47;;
67762;SDS011;54566;52.022;5.582;2022-08-21T15:13:58;9.48;;;2.75;;
67762;SDS011;54566;52.022;5.582;2022-08-21T15:16:26;6.95;;;2.33;;
67762;SDS011;54566;52.022;5.582;2022-08-21T15:18:52;10.60;;;2.65;;
67762;SDS011;54566;52.022;5.582;2022-08-21T15:21:18;5.63;;;2.10;;
67762;SDS011;54566;52.022;5.582;2022-08-21T15:23:45;7.07;;;1.80;;
67762;SDS011;54566;52.022;5.582;2022-08-21T15:26:11;7.88;;;2.15;;
67762;SDS011;54566;52.022;5.582;2022-08-21T15:28:37;9.90;;;2.28;;
67762;SDS011;54566;52.022;5.582;2022-08-21T15:31:03;10.15;;;2.53;;
67762;SDS011;54566;52.022;5.582;2022-08-21T15:33:30;7.13;;;1.70;;
67762;SDS011;54566;52.022;5.582;2022-08-21T15:35:56;9.25;;;2.22;;
67762;SDS011;54566;52.022;5.582;2022-08-21T15:38:22;6.00;;;2.15;;
67762;SDS011;54566;52.022;5.582;2022-08-21T15:40:49;11.68;;;4.65;;
67762;SDS011;54566;52.022;5.582;2022-08-21T15:43:36;17.13;;;4.45;;
67762;SDS011;54566;52.022;5.582;2022-08-21T15:46:03;19.08;;;4.78;;
67762;SDS011;54566;52.022;5.582;2022-08-21T15:48:30;7.82;;;2.83;;
67762;SDS011;54566;52.022;5.582;2022-08-21T15:50:56;45.28;;;10.48;;
67762;SDS011;54566;52.022;5.582;2022-08-21T15:53:22;11.55;;;2.85;;
67762;SDS011;54566;52.022;5.582;2022-08-21T15:55:48;9.05;;;2.22;;
67762;SDS011;54566;52.022;5.582;2022-08-21T15:58:15;6.30;;;1.90;;
67762;SDS011;54566;52.022;5.582;2022-08-21T16:00:41;13.05;;;3.15;;
67762;SDS011;54566;52.022;5.582;2022-08-21T16:03:09;5.07;;;2.25;;
67762;SDS011;54566;52.022;5.582;2022-08-21T16:05:39;10.50;;;2.45;;
67762;SDS011;54566;52.022;5.582;2022-08-21T16:08:05;10.35;;;2.95;;
67762;SDS011;54566;52.022;5.582;2022-08-21T16:10:31;8.57;;;2.10;;
67762;SDS011;54566;52.022;5.582;2022-08-21T16:12:58;7.88;;;2.67;;
67762;SDS011;54566;52.022;5.582;2022-08-21T16:15:26;6.60;;;1.80;;
67762;SDS011;54566;52.022;5.582;2022-08-21T16:17:54;6.03;;;2.10;;
67762;SDS011;54566;52.022;5.582;2022-08-21T16:20:24;7.80;;;2.20;;
67762;SDS011;54566;52.022;5.582;2022-08-21T16:22:51;11.55;;;2.85;;
67762;SDS011;54566;52.022;5.582;2022-08-21T16:25:18;7.65;;;2.50;;